Time;durP1;ratioP1;P1;durP2;ratioP2;P2;SDS_P1;SDS_P2;PMS_P1;PMS_P2;Temp;Humidity;BMP_temperature;BMP_pressure;BME280_temperature;BME280_humidity;BME280_pressure;Samples;Min_cycle;Max_cycle;Signal;HPM_P1;HPM_P2
2022/06/27 00:02:25;;;;;;;;;3.00;3.00;;;;;;;;5098850;27;45413;-69
2022/06/27 00:04:50;;;;;;;;;4.00;4.00;;;;;;;;5098816;27;45362;-69
2022/06/27 00:07:16;;;;;;;;;3.67;3.67;;;;;;;;5099177;27;45398;-69
2022/06/27 00:09:41;;;;;;;;;3.00;3.00;;;;;;;;5098783;27;45324;-69
2022/06/27 00:12:08;;;;;;;;;4.00;3.00;;;;;;;;5098795;27;45228;-69
2022/06/27 00:14:33;;;;;;;;;3.67;3.00;;;;;;;;5098846;27;45217;-69
2022/06/27 00:16:58;;;;;;;;;5.33;3.67;;;;;;;;5098942;27;45325;-69
2022/06/27 00:19:24;;;;;;;;;7.00;4.00;;;;;;;;5097080;27;47562;-69
2022/06/27 00:21:49;;;;;;;;;3.00;3.00;;;;;;;;5098563;27;45228;-69
2022/06/27 00:24:14;;;;;;;;;3.67;3.67;;;;;;;;5098338;27;45171;-69
2022/06/27 00:26:39;;;;;;;;;3.00;3.00;;;;;;;;5098694;27;45208;-69
2022/06/27 00:29:05;;;;;;;;;2.33;2.33;;;;;;;;5098394;27;46093;-69
2022/06/27 00:31:30;;;;;;;;;5.00;3.00;;;;;;;;5098565;27;45276;-69
2022/06/27 00:33:55;;;;;;;;;5.00;4.00;;;;;;;;5098504;27;45425;-69
2022/06/27 00:36:21;;;;;;;;;4.00;4.00;;;;;;;;5098746;27;45300;-69
2022/06/27 00:38:46;;;;;;;;;3.00;3.00;;;;;;;;5098300;27;45495;-69
2022/06/27 00:41:11;;;;;;;;;3.00;3.00;;;;;;;;5098380;27;45263;-69
2022/06/27 00:43:36;;;;;;;;;5.67;4.00;;;;;;;;5098426;27;45302;-69
2022/06/27 00:46:01;;;;;;;;;3.33;2.33;;;;;;;;5098552;27;45463;-69
2022/06/27 00:48:27;;;;;;;;;6.33;5.00;;;;;;;;5098204;27;45436;-69
2022/06/27 00:50:52;;;;;;;;;6.00;5.00;;;;;;;;5098116;27;45351;-69
2022/06/27 00:53:18;;;;;;;;;5.00;3.00;;;;;;;;5098364;27;45429;-69
2022/06/27 00:55:43;;;;;;;;;5.00;4.00;;;;;;;;5098560;27;45368;-69
2022/06/27 00:58:08;;;;;;;;;2.00;2.00;;;;;;;;5096654;27;48127;-69
2022/06/27 01:00:34;;;;;;;;;4.33;3.00;;;;;;;;5097172;27;45381;-69
2022/06/27 01:02:59;;;;;;;;;2.33;2.33;;;;;;;;5098024;27;45456;-69
2022/06/27 01:05:24;;;;;;;;;6.00;4.33;;;;;;;;5098119;27;45315;-69
2022/06/27 01:07:50;;;;;;;;;5.33;4.00;;;;;;;;5097697;27;46618;-69
2022/06/27 01:10:15;;;;;;;;;7.00;4.00;;;;;;;;5097779;27;45405;-69
2022/06/27 01:12:41;;;;;;;;;5.00;5.00;;;;;;;;5097946;27;45417;-69
2022/06/27 01:15:07;;;;;;;;;4.67;4.00;;;;;;;;5098031;27;45402;-69
2022/06/27 01:17:33;;;;;;;;;5.00;5.00;;;;;;;;5097674;27;45515;-69
2022/06/27 01:19:59;;;;;;;;;3.33;3.33;;;;;;;;5097655;27;45285;-69
2022/06/27 01:22:24;;;;;;;;;5.00;4.00;;;;;;;;5097780;27;45245;-69
2022/06/27 01:24:49;;;;;;;;;6.00;4.00;;;;;;;;5098072;27;45340;-69
2022/06/27 01:27:15;;;;;;;;;8.33;5.00;;;;;;;;5097456;27;46519;-69
2022/06/27 01:29:40;;;;;;;;;4.33;4.00;;;;;;;;5097678;27;45300;-69
2022/06/27 01:32:05;;;;;;;;;9.00;5.00;;;;;;;;5097576;27;45429;-69
2022/06/27 01:34:31;;;;;;;;;3.33;2.00;;;;;;;;5097702;27;45154;-69
2022/06/27 01:36:56;;;;;;;;;6.00;6.00;;;;;;;;5099702;27;46431;-69
2022/06/27 01:39:23;;;;;;;;;4.67;4.67;;;;;;;;5101077;27;45336;-69
2022/06/27 01:41:55;;;;;;;;;5.33;3.33;;;;;;;;5101417;27;45322;-69
2022/06/27 01:44:22;;;;;;;;;5.00;4.00;;;;;;;;5101350;27;45362;-69
2022/06/27 01:47:08;;;;;;;;;6.67;6.00;;;;;;;;5100841;27;45428;-69
2022/06/27 01:49:35;;;;;;;;;9.00;4.00;;;;;;;;5100638;27;45477;-69
2022/06/27 01:52:01;;;;;;;;;3.00;3.00;;;;;;;;5101124;27;45635;-69
2022/06/27 01:54:26;;;;;;;;;5.67;4.00;;;;;;;;5101207;27;45324;-69
2022/06/27 01:56:53;;;;;;;;;4.33;4.33;;;;;;;;5100665;27;46555;-69
2022/06/27 01:59:19;;;;;;;;;8.00;5.00;;;;;;;;5099348;27;45271;-69
2022/06/27 02:01:45;;;;;;;;;5.67;5.67;;;;;;;;5100663;27;45231;-69
2022/06/27 02:04:11;;;;;;;;;5.00;4.00;;;;;;;;5100975;27;45262;-69
2022/06/27 02:06:36;;;;;;;;;7.00;7.00;;;;;;;;5100539;27;47027;-69
2022/06/27 02:09:06;;;;;;;;;5.00;5.00;;;;;;;;5100594;27;45251;-69
2022/06/27 02:11:31;;;;;;;;;7.33;5.00;;;;;;;;5100885;27;45425;-69
2022/06/27 02:13:57;;;;;;;;;5.00;3.33;;;;;;;;5100678;27;45421;-69
2022/06/27 02:16:22;;;;;;;;;4.00;4.00;;;;;;;;5100601;27;46561;-69
2022/06/27 02:18:48;;;;;;;;;4.67;4.00;;;;;;;;5100585;27;45449;-69
2022/06/27 02:21:15;;;;;;;;;7.00;3.67;;;;;;;;5100510;27;45322;-69
2022/06/27 02:23:41;;;;;;;;;4.00;4.00;;;;;;;;5100790;27;45417;-69
2022/06/27 02:26:07;;;;;;;;;6.67;4.00;;;;;;;;5100185;27;45809;-69
2022/06/27 02:28:32;;;;;;;;;6.00;4.00;;;;;;;;5100372;27;45338;-69
2022/06/27 02:30:58;;;;;;;;;5.00;5.00;;;;;;;;5100618;27;45303;-69
2022/06/27 02:33:25;;;;;;;;;4.67;3.00;;;;;;;;5100502;27;45525;-69
2022/06/27 02:35:51;;;;;;;;;5.67;5.67;;;;;;;;5100041;27;45476;-69
2022/06/27 02:38:17;;;;;;;;;4.00;4.00;;;;;;;;5100085;27;45403;-69
2022/06/27 02:40:42;;;;;;;;;5.00;3.33;;;;;;;;5100326;27;45428;-69
2022/06/27 02:43:09;;;;;;;;;4.00;4.00;;;;;;;;5100516;27;45588;-70
2022/06/27 02:45:35;;;;;;;;;8.67;5.33;;;;;;;;5100008;27;46672;-69
2022/06/27 02:48:01;;;;;;;;;8.00;7.00;;;;;;;;5099917;27;45165;-69
2022/06/27 02:50:27;;;;;;;;;6.67;5.00;;;;;;;;5100013;27;45326;-69
2022/06/27 02:52:54;;;;;;;;;7.00;5.00;;;;;;;;5100397;27;45906;-69
2022/06/27 02:55:22;;;;;;;;;4.67;4.67;;;;;;;;5099905;27;47597;-69
2022/06/27 02:57:50;;;;;;;;;4.33;4.33;;;;;;;;5099897;27;45419;-70
2022/06/27 03:00:16;;;;;;;;;5.67;5.67;;;;;;;;5100000;27;45362;-69
2022/06/27 03:02:42;;;;;;;;;5.00;5.00;;;;;;;;5099974;27;45174;-69
2022/06/27 03:05:07;;;;;;;;;7.00;5.00;;;;;;;;5099583;27;46357;-69
2022/06/27 03:07:51;;;;;;;;;5.67;5.00;;;;;;;;5099787;27;45366;-69
2022/06/27 03:10:16;;;;;;;;;6.67;4.33;;;;;;;;5100009;27;45294;-69
2022/06/27 03:12:41;;;;;;;;;6.33;6.33;;;;;;;;5100072;27;45267;-69
2022/06/27 03:15:07;;;;;;;;;7.33;7.33;;;;;;;;5099604;27;45401;-69
2022/06/27 03:17:32;;;;;;;;;8.00;5.00;;;;;;;;5099466;27;45286;-69
2022/06/27 03:19:57;;;;;;;;;7.00;6.67;;;;;;;;5099639;27;45335;-69
2022/06/27 03:22:23;;;;;;;;;8.33;6.33;;;;;;;;5100581;27;45283;-69
2022/06/27 03:24:48;;;;;;;;;7.00;6.00;;;;;;;;5103489;27;45543;-69
2022/06/27 03:27:13;;;;;;;;;8.67;5.00;;;;;;;;5108304;27;45511;-69
2022/06/27 03:29:38;;;;;;;;;8.33;6.33;;;;;;;;5099589;27;45280;-69
2022/06/27 03:32:04;;;;;;;;;8.33;7.00;;;;;;;;5099725;27;45302;-69
2022/06/27 03:34:30;;;;;;;;;6.00;6.00;;;;;;;;5099396;27;46499;-69
2022/06/27 03:36:55;;;;;;;;;8.00;8.00;;;;;;;;5099148;27;45230;-69
2022/06/27 03:39:21;;;;;;;;;9.67;6.00;;;;;;;;5099436;27;45252;-69
2022/06/27 03:41:46;;;;;;;;;6.67;6.00;;;;;;;;5099546;27;45676;-69
2022/06/27 03:44:11;;;;;;;;;11.00;5.67;;;;;;;;5098975;27;46443;-69
2022/06/27 03:46:37;;;;;;;;;6.67;4.33;;;;;;;;5098989;27;45395;-69
2022/06/27 03:51:46;;;;;;;;;9.00;7.67;;;;;;;;5099124;27;45449;-69
2022/06/27 03:54:12;;;;;;;;;5.00;5.00;;;;;;;;5099007;27;45392;-69
2022/06/27 03:56:37;;;;;;;;;8.00;6.33;;;;;;;;5098913;27;45501;-69
2022/06/27 03:59:02;;;;;;;;;6.33;5.67;;;;;;;;5098333;27;45295;-69
2022/06/27 04:01:28;;;;;;;;;9.33;7.00;;;;;;;;5099110;27;45466;-69
2022/06/27 04:03:53;;;;;;;;;6.67;5.67;;;;;;;;5098827;27;46430;-69
2022/06/27 04:06:18;;;;;;;;;5.67;4.67;;;;;;;;5098865;27;45316;-69
2022/06/27 04:08:43;;;;;;;;;5.00;5.00;;;;;;;;5098892;27;45444;-69
2022/06/27 04:11:09;;;;;;;;;8.00;6.33;;;;;;;;5099202;27;45422;-69
2022/06/27 04:13:34;;;;;;;;;7.00;6.00;;;;;;;;5098551;27;45204;-69
2022/06/27 04:15:59;;;;;;;;;8.33;6.67;;;;;;;;5098574;27;45292;-69
2022/06/27 04:18:24;;;;;;;;;12.33;5.33;;;;;;;;5098883;27;45328;-69
2022/06/27 04:20:50;;;;;;;;;9.67;6.00;;;;;;;;5098733;27;45373;-69
2022/06/27 04:23:15;;;;;;;;;7.33;6.00;;;;;;;;5098650;27;45702;-69
2022/06/27 04:25:42;;;;;;;;;5.00;5.00;;;;;;;;5097137;27;45703;-69
2022/06/27 04:28:07;;;;;;;;;6.33;5.67;;;;;;;;5098483;27;45209;-69
2022/06/27 04:30:33;;;;;;;;;3.33;2.33;;;;;;;;5098873;27;45246;-69
2022/06/27 04:32:58;;;;;;;;;6.33;6.33;;;;;;;;5098437;27;45512;-69
2022/06/27 04:35:25;;;;;;;;;7.00;7.00;;;;;;;;5098479;27;45259;-69
2022/06/27 04:37:50;;;;;;;;;6.33;6.33;;;;;;;;5098397;27;45429;-69
2022/06/27 04:40:17;;;;;;;;;6.00;4.00;;;;;;;;5098726;27;45358;-69
2022/06/27 04:42:43;;;;;;;;;6.33;6.00;;;;;;;;5098418;27;45354;-69
2022/06/27 04:45:09;;;;;;;;;4.67;4.67;;;;;;;;5098334;27;45291;-69
2022/06/27 04:47:37;;;;;;;;;8.67;7.00;;;;;;;;5098358;27;45231;-69
2022/06/27 04:50:02;;;;;;;;;6.33;5.67;;;;;;;;5098346;27;45225;-69
2022/06/27 04:52:28;;;;;;;;;32.33;20.67;;;;;;;;5098031;27;45534;-69
2022/06/27 04:54:54;;;;;;;;;7.67;5.00;;;;;;;;5108226;27;45383;-69
2022/06/27 04:57:19;;;;;;;;;4.67;4.67;;;;;;;;5118323;27;45465;-71
2022/06/27 04:59:45;;;;;;;;;6.33;4.67;;;;;;;;5118783;27;45325;-70
2022/06/27 05:02:10;;;;;;;;;9.00;8.00;;;;;;;;5118522;27;46541;-69
2022/06/27 05:04:35;;;;;;;;;6.33;5.67;;;;;;;;5118643;27;45318;-69
2022/06/27 05:07:01;;;;;;;;;7.00;7.00;;;;;;;;5117180;27;45391;-69
2022/06/27 05:09:27;;;;;;;;;7.00;7.00;;;;;;;;5118808;27;45373;-70
2022/06/27 05:11:54;;;;;;;;;5.33;5.00;;;;;;;;5120364;27;47224;-70
2022/06/27 05:14:19;;;;;;;;;10.00;8.00;;;;;;;;5122077;27;45809;-70
2022/06/27 05:16:44;;;;;;;;;7.00;6.33;;;;;;;;5122244;27;45459;-70
2022/06/27 05:19:10;;;;;;;;;6.00;6.00;;;;;;;;5122470;27;45209;-69
2022/06/27 05:21:35;;;;;;;;;7.00;5.67;;;;;;;;5121930;27;46113;-69
2022/06/27 05:24:01;;;;;;;;;7.00;5.00;;;;;;;;5122337;27;45347;-69
2022/06/27 05:26:26;;;;;;;;;6.00;6.00;;;;;;;;5121907;27;45177;-69
2022/06/27 05:28:52;;;;;;;;;7.00;7.00;;;;;;;;5122216;27;45351;-70
2022/06/27 05:31:17;;;;;;;;;5.33;4.67;;;;;;;;5122057;27;46270;-71
2022/06/27 05:33:42;;;;;;;;;7.00;7.00;;;;;;;;5121964;27;45405;-69
2022/06/27 05:36:08;;;;;;;;;7.00;7.00;;;;;;;;5121886;27;45373;-69
2022/06/27 05:38:34;;;;;;;;;9.00;7.00;;;;;;;;5122079;27;45344;-70
2022/06/27 05:40:59;;;;;;;;;9.33;8.00;;;;;;;;5121654;27;46260;-70
2022/06/27 05:43:24;;;;;;;;;7.00;6.33;;;;;;;;5121788;27;45379;-69
2022/06/27 05:45:50;;;;;;;;;11.67;9.67;;;;;;;;5121851;27;45376;-70
2022/06/27 05:48:15;;;;;;;;;9.67;7.67;;;;;;;;5121916;27;45352;-70
2022/06/27 05:50:40;;;;;;;;;6.00;6.00;;;;;;;;5121336;27;46253;-69
2022/06/27 05:53:06;;;;;;;;;12.00;6.33;;;;;;;;5121667;27;45244;-70
2022/06/27 05:55:32;;;;;;;;;8.67;6.00;;;;;;;;5121823;27;45392;-69
2022/06/27 05:57:58;;;;;;;;;6.00;5.67;;;;;;;;5121730;27;45487;-70
2022/06/27 06:00:24;;;;;;;;;8.00;7.00;;;;;;;;5121279;27;45836;-69
2022/06/27 06:02:49;;;;;;;;;7.67;6.00;;;;;;;;5120076;27;45327;-70
2022/06/27 06:05:15;;;;;;;;;6.00;6.00;;;;;;;;5121562;27;45305;-69
2022/06/27 06:07:43;;;;;;;;;6.00;6.00;;;;;;;;5121498;27;45290;-70
2022/06/27 06:10:08;;;;;;;;;7.33;7.33;;;;;;;;5121241;27;45416;-70
2022/06/27 06:12:34;;;;;;;;;8.33;5.67;;;;;;;;5121449;27;45290;-70
2022/06/27 06:15:02;;;;;;;;;11.33;8.00;;;;;;;;5121349;27;45342;-71
2022/06/27 06:17:28;;;;;;;;;9.00;9.00;;;;;;;;5121177;27;45786;-71
2022/06/27 06:19:53;;;;;;;;;13.67;11.67;;;;;;;;5121071;27;46009;-72
2022/06/27 06:22:18;;;;;;;;;7.67;6.33;;;;;;;;5120359;27;45188;-72
2022/06/27 06:24:47;;;;;;;;;7.00;6.00;;;;;;;;5121383;27;45245;-72
2022/06/27 06:27:12;;;;;;;;;7.33;7.33;;;;;;;;5121125;27;45472;-72
2022/06/27 06:29:39;;;;;;;;;10.67;8.00;;;;;;;;5120785;27;46660;-72
2022/06/27 06:32:05;;;;;;;;;10.33;6.33;;;;;;;;5120394;27;45319;-72
2022/06/27 06:34:30;;;;;;;;;8.00;7.33;;;;;;;;5119067;27;45848;-71
2022/06/27 06:36:55;;;;;;;;;23.00;19.00;;;;;;;;5120619;27;45203;-71
2022/06/27 06:39:21;;;;;;;;;8.00;6.67;;;;;;;;5120364;27;46315;-71
2022/06/27 06:41:46;;;;;;;;;9.67;7.00;;;;;;;;5120076;27;45316;-71
2022/06/27 06:44:11;;;;;;;;;8.00;8.00;;;;;;;;5124201;27;45351;-71
2022/06/27 06:46:37;;;;;;;;;8.67;7.00;;;;;;;;5129549;27;45291;-72
2022/06/27 06:49:05;;;;;;;;;4.00;2.00;;;;;;;;5141249;27;45474;-72
2022/06/27 06:51:31;;;;;;;;;5.67;5.00;;;;;;;;5140903;27;45226;-71
2022/06/27 06:53:57;;;;;;;;;8.33;5.33;;;;;;;;5141071;27;45326;-71
2022/06/27 06:56:22;;;;;;;;;6.33;4.67;;;;;;;;5140001;27;45616;-72
2022/06/27 06:58:48;;;;;;;;;5.00;5.00;;;;;;;;5139419;27;47485;-71
2022/06/27 07:01:13;;;;;;;;;6.33;6.33;;;;;;;;5129214;27;45500;-71
2022/06/27 07:03:38;;;;;;;;;6.00;5.00;;;;;;;;5120380;27;45372;-72
2022/06/27 07:06:04;;;;;;;;;10.67;8.67;;;;;;;;5120076;27;45347;-72
2022/06/27 07:08:30;;;;;;;;;8.00;5.00;;;;;;;;5120032;27;46454;-71
2022/06/27 07:10:56;;;;;;;;;7.67;6.00;;;;;;;;5120094;27;45396;-72
2022/06/27 07:13:23;;;;;;;;;5.67;5.67;;;;;;;;5120161;27;45355;-71
2022/06/27 07:15:48;;;;;;;;;10.67;6.00;;;;;;;;5120148;27;45674;-71
2022/06/27 07:18:14;;;;;;;;;6.00;5.00;;;;;;;;5119565;27;46582;-71
2022/06/27 07:20:39;;;;;;;;;3.33;2.67;;;;;;;;5119896;27;45334;-72
2022/06/27 07:23:06;;;;;;;;;5.33;5.33;;;;;;;;5119655;27;45468;-72
2022/06/27 07:25:33;;;;;;;;;4.00;4.00;;;;;;;;5119993;27;45381;-72
2022/06/27 07:27:59;;;;;;;;;5.00;5.00;;;;;;;;5119533;27;46099;-72
2022/06/27 07:30:24;;;;;;;;;12.67;12.67;;;;;;;;5119678;27;45366;-72
2022/06/27 07:32:49;;;;;;;;;6.00;3.33;;;;;;;;5119974;27;45392;-72
2022/06/27 07:35:16;;;;;;;;;4.00;4.00;;;;;;;;5118937;27;45287;-73
2022/06/27 07:37:47;;;;;;;;;10.67;9.67;;;;;;;;5119188;27;45769;-74
2022/06/27 07:40:13;;;;;;;;;3.00;3.00;;;;;;;;5119496;27;45227;-76
2022/06/27 07:42:38;;;;;;;;;4.00;3.00;;;;;;;;5119651;27;45219;-72
2022/06/27 07:45:04;;;;;;;;;2.00;2.00;;;;;;;;5119983;27;45349;-71
2022/06/27 07:47:29;;;;;;;;;6.67;4.00;;;;;;;;5119263;27;46563;-72
2022/06/27 07:49:54;;;;;;;;;4.33;3.33;;;;;;;;5118982;27;45349;-72
2022/06/27 07:52:19;;;;;;;;;5.33;5.00;;;;;;;;5119502;27;45476;-72
2022/06/27 07:54:45;;;;;;;;;6.67;4.33;;;;;;;;5119834;27;45345;-72
2022/06/27 07:57:10;;;;;;;;;4.00;3.00;;;;;;;;5119629;27;46342;-71
2022/06/27 07:59:36;;;;;;;;;4.00;4.00;;;;;;;;5119005;27;45518;-73
2022/06/27 08:02:01;;;;;;;;;7.00;6.00;;;;;;;;5119558;27;45440;-72
2022/06/27 08:04:27;;;;;;;;;12.67;8.33;;;;;;;;5119642;27;45394;-72
2022/06/27 08:06:53;;;;;;;;;13.00;12.00;;;;;;;;5119060;27;46665;-72
2022/06/27 08:09:20;;;;;;;;;9.33;9.33;;;;;;;;5119471;27;45456;-72
2022/06/27 08:11:45;;;;;;;;;10.33;7.00;;;;;;;;5119361;27;45400;-72
2022/06/27 08:14:12;;;;;;;;;8.33;7.67;;;;;;;;5119112;27;45357;-71
2022/06/27 08:16:39;;;;;;;;;12.67;10.00;;;;;;;;5119012;27;46136;-72
2022/06/27 08:19:05;;;;;;;;;14.33;13.00;;;;;;;;5119048;27;45258;-73
2022/06/27 08:21:31;;;;;;;;;18.00;15.00;;;;;;;;5119579;27;45328;-73
2022/06/27 08:23:58;;;;;;;;;18.67;18.67;;;;;;;;5119405;27;45309;-73
2022/06/27 08:26:24;;;;;;;;;16.33;15.33;;;;;;;;5118696;27;45385;-72
2022/06/27 08:28:50;;;;;;;;;17.67;16.67;;;;;;;;5119096;27;45189;-72
2022/06/27 08:31:16;;;;;;;;;17.00;15.00;;;;;;;;5118722;27;45505;-72
2022/06/27 08:33:45;;;;;;;;;10.33;10.33;;;;;;;;5117709;27;45485;-73
2022/06/27 08:36:12;;;;;;;;;7.00;7.00;;;;;;;;5118983;27;46361;-73
2022/06/27 08:38:42;;;;;;;;;9.00;6.00;;;;;;;;5118310;27;45311;-72
2022/06/27 08:41:09;;;;;;;;;8.67;7.33;;;;;;;;5119160;27;45432;-71
2022/06/27 08:43:34;;;;;;;;;5.67;5.33;;;;;;;;5117713;27;45458;-72
2022/06/27 08:46:00;;;;;;;;;6.00;5.00;;;;;;;;5118351;27;45420;-72
2022/06/27 08:48:28;;;;;;;;;6.00;4.33;;;;;;;;5118617;27;45417;-72
2022/06/27 08:50:55;;;;;;;;;4.67;4.00;;;;;;;;5118804;27;45321;-72
2022/06/27 08:53:22;;;;;;;;;3.33;3.00;;;;;;;;5118725;27;45210;-73
2022/06/27 08:55:47;;;;;;;;;3.67;2.67;;;;;;;;5118559;27;46576;-73
2022/06/27 08:58:13;;;;;;;;;3.00;3.00;;;;;;;;5118507;27;45397;-72
2022/06/27 09:00:45;;;;;;;;;7.00;6.00;;;;;;;;5118678;27;45347;-73
2022/06/27 09:03:10;;;;;;;;;2.33;2.33;;;;;;;;5118698;27;45302;-73
2022/06/27 09:05:36;;;;;;;;;4.33;3.33;;;;;;;;5118242;27;45491;-74
2022/06/27 09:08:02;;;;;;;;;3.00;2.67;;;;;;;;5118393;27;45334;-73
2022/06/27 09:10:28;;;;;;;;;6.33;5.00;;;;;;;;5118612;27;45432;-73
2022/06/27 09:12:55;;;;;;;;;3.00;3.00;;;;;;;;5118643;27;45584;-74
2022/06/27 09:15:21;;;;;;;;;3.00;3.00;;;;;;;;5118429;27;46262;-74
2022/06/27 09:17:59;;;;;;;;;3.00;3.00;;;;;;;;5118358;27;45412;-72
2022/06/27 09:20:25;;;;;;;;;3.33;3.33;;;;;;;;5118513;27;45275;-72
2022/06/27 09:22:52;;;;;;;;;3.00;3.00;;;;;;;;5118722;27;45246;-73
2022/06/27 09:25:21;;;;;;;;;3.00;3.00;;;;;;;;5118073;27;45420;-73
2022/06/27 09:27:50;;;;;;;;;2.67;2.67;;;;;;;;5118151;27;45401;-72
2022/06/27 09:30:18;;;;;;;;;3.00;2.00;;;;;;;;5118596;27;45280;-73
2022/06/27 09:32:43;;;;;;;;;1.00;1.00;;;;;;;;5118648;27;45502;-73
2022/06/27 09:35:29;;;;;;;;;2.33;2.00;;;;;;;;5118230;27;45415;-73
2022/06/27 09:37:55;;;;;;;;;4.33;3.00;;;;;;;;5118004;27;45449;-73
2022/06/27 09:40:22;;;;;;;;;2.00;1.00;;;;;;;;5118186;27;45491;-73
2022/06/27 09:42:48;;;;;;;;;2.33;1.33;;;;;;;;5118174;27;45518;-74
2022/06/27 09:45:14;;;;;;;;;3.00;1.33;;;;;;;;5118065;27;45316;-74
2022/06/27 09:47:42;;;;;;;;;1.67;1.00;;;;;;;;5117918;27;45233;-74
2022/06/27 09:50:09;;;;;;;;;1.00;1.00;;;;;;;;5118305;27;45286;-73
2022/06/27 09:52:35;;;;;;;;;4.00;3.67;;;;;;;;5118001;27;45406;-73
2022/06/27 09:55:01;;;;;;;;;4.00;2.00;;;;;;;;5117871;27;45463;-73
2022/06/27 09:57:27;;;;;;;;;1.67;1.67;;;;;;;;5119078;27;45311;-72
2022/06/27 09:59:53;;;;;;;;;2.00;1.00;;;;;;;;5121101;27;45468;-70
2022/06/27 10:02:22;;;;;;;;;0.00;0.00;;;;;;;;5121547;27;45173;-70
2022/06/27 10:04:47;;;;;;;;;1.00;1.00;;;;;;;;5121144;27;46892;-70
2022/06/27 10:07:15;;;;;;;;;1.00;1.00;;;;;;;;5121165;27;45408;-71
2022/06/27 10:09:41;;;;;;;;;3.00;2.00;;;;;;;;5121472;27;45448;-71
2022/06/27 10:12:26;;;;;;;;;3.67;0.67;;;;;;;;5120142;27;45472;-70
2022/06/27 10:15:09;;;;;;;;;1.33;0.00;;;;;;;;5120848;27;45650;-72
2022/06/27 10:17:36;;;;;;;;;1.00;1.00;;;;;;;;5121239;27;45370;-72
2022/06/27 10:20:06;;;;;;;;;1.00;1.00;;;;;;;;5121409;27;45341;-72
2022/06/27 10:22:31;;;;;;;;;1.67;1.00;;;;;;;;5121232;27;45298;-71
2022/06/27 10:25:16;;;;;;;;;2.00;1.00;;;;;;;;5121066;27;45769;-72
2022/06/27 10:27:42;;;;;;;;;1.67;1.67;;;;;;;;5120816;27;45349;-72
2022/06/27 10:30:26;;;;;;;;;2.00;1.00;;;;;;;;5121374;27;45405;-72
2022/06/27 10:32:52;;;;;;;;;3.00;3.00;;;;;;;;5121374;27;45303;-73
2022/06/27 10:35:17;;;;;;;;;3.33;1.00;;;;;;;;5120834;27;45444;-72
2022/06/27 10:37:43;;;;;;;;;2.00;0.33;;;;;;;;5120769;27;45448;-71
2022/06/27 10:40:20;;;;;;;;;1.33;1.33;;;;;;;;5119753;27;45474;-72
2022/06/27 10:42:45;;;;;;;;;1.00;1.00;;;;;;;;5121181;27;45537;-72
2022/06/27 10:45:20;;;;;;;;;2.00;1.00;;;;;;;;5120846;27;46174;-72
2022/06/27 10:47:53;;;;;;;;;2.00;1.00;;;;;;;;5120807;27;45391;-72
2022/06/27 10:50:19;;;;;;;;;1.67;1.00;;;;;;;;5120731;27;45404;-73
2022/06/27 10:52:45;;;;;;;;;3.33;2.00;;;;;;;;5120820;27;45338;-72
2022/06/27 10:55:21;;;;;;;;;1.00;1.00;;;;;;;;5120537;27;46144;-72
2022/06/27 10:57:46;;;;;;;;;1.00;1.00;;;;;;;;5120530;27;45434;-71
2022/06/27 11:00:32;;;;;;;;;1.00;1.00;;;;;;;;5120680;27;45326;-72
2022/06/27 11:02:58;;;;;;;;;4.00;1.00;;;;;;;;5120704;27;45492;-72
2022/06/27 11:05:24;;;;;;;;;1.00;1.00;;;;;;;;5120272;27;45498;-72
2022/06/27 11:07:50;;;;;;;;;1.00;1.00;;;;;;;;5119933;27;45432;-71
2022/06/27 11:10:16;;;;;;;;;2.00;0.00;;;;;;;;5120692;27;45394;-72
2022/06/27 11:12:41;;;;;;;;;1.00;1.00;;;;;;;;5120656;27;45260;-71
2022/06/27 11:15:09;;;;;;;;;4.33;2.67;;;;;;;;5120236;27;45641;-71
2022/06/27 11:17:34;;;;;;;;;2.00;2.00;;;;;;;;5120241;27;45344;-71
2022/06/27 11:20:20;;;;;;;;;1.00;1.00;;;;;;;;5120359;27;45406;-71
2022/06/27 11:22:47;;;;;;;;;0.00;0.00;;;;;;;;5120219;27;45490;-71
2022/06/27 11:25:12;;;;;;;;;0.00;0.00;;;;;;;;5120242;27;46064;-71
2022/06/27 11:27:44;;;;;;;;;2.00;1.00;;;;;;;;5119888;27;45302;-71
2022/06/27 11:32:53;;;;;;;;;5.33;4.00;;;;;;;;5120424;27;45259;-71
2022/06/27 11:35:19;;;;;;;;;1.00;1.00;;;;;;;;5119910;27;45421;-71
2022/06/27 11:37:44;;;;;;;;;27.33;23.67;;;;;;;;5119730;27;45410;-72
2022/06/27 11:40:09;;;;;;;;;54.50;44.00;;;;;;;;5119823;27;45472;-72
2022/06/27 11:42:35;;;;;;;;;10.00;7.33;;;;;;;;5118599;27;45530;-71
2022/06/27 11:45:02;;;;;;;;;7.00;5.67;;;;;;;;5118434;27;45737;-71
2022/06/27 11:47:28;;;;;;;;;8.33;6.67;;;;;;;;5119631;27;45261;-72
2022/06/27 11:50:11;;;;;;;;;10.00;5.33;;;;;;;;5119747;27;45446;-71
2022/06/27 11:52:42;;;;;;;;;2.33;2.33;;;;;;;;5119825;27;45486;-72
2022/06/27 11:55:18;;;;;;;;;3.00;1.00;;;;;;;;5119480;27;46605;-73
2022/06/27 11:57:44;;;;;;;;;5.33;4.00;;;;;;;;5119354;27;45273;-73
2022/06/27 12:00:15;;;;;;;;;1.00;1.00;;;;;;;;5119450;27;45306;-73
2022/06/27 12:02:41;;;;;;;;;1.00;1.00;;;;;;;;5119905;27;45433;-73
2022/06/27 12:05:06;;;;;;;;;1.00;1.00;;;;;;;;5119434;27;46224;-73
2022/06/27 12:07:48;;;;;;;;;8.00;6.00;;;;;;;;5119339;27;45371;-73
2022/06/27 12:10:14;;;;;;;;;1.00;1.00;;;;;;;;5119518;27;45369;-72
2022/06/27 12:12:43;;;;;;;;;7.00;6.00;;;;;;;;5119582;27;45445;-72
2022/06/27 12:15:18;;;;;;;;;2.67;2.67;;;;;;;;5119351;27;46327;-73
2022/06/27 12:17:43;;;;;;;;;0.00;0.00;;;;;;;;5119426;27;45297;-73
2022/06/27 12:20:09;;;;;;;;;0.00;0.00;;;;;;;;5118861;27;45514;-73
2022/06/27 12:22:34;;;;;;;;;0.00;0.00;;;;;;;;5119640;27;45369;-73
2022/06/27 12:25:00;;;;;;;;;0.00;0.00;;;;;;;;5119052;27;45538;-73
2022/06/27 12:27:26;;;;;;;;;0.00;0.00;;;;;;;;5119078;27;45337;-72
2022/06/27 12:29:51;;;;;;;;;0.00;0.00;;;;;;;;5118041;27;45374;-73
2022/06/27 12:32:16;;;;;;;;;0.00;0.00;;;;;;;;5119381;27;45308;-73
2022/06/27 12:34:41;;;;;;;;;0.33;0.33;;;;;;;;5119013;27;45600;-73
2022/06/27 12:37:07;;;;;;;;;0.00;0.00;;;;;;;;5119217;27;45252;-73
2022/06/27 12:39:32;;;;;;;;;0.00;0.00;;;;;;;;5118998;27;45241;-74
2022/06/27 12:41:57;;;;;;;;;0.00;0.00;;;;;;;;5119393;27;45225;-73
2022/06/27 12:44:22;;;;;;;;;0.67;0.67;;;;;;;;5118845;27;46093;-73
2022/06/27 12:46:48;;;;;;;;;0.33;0.33;;;;;;;;5118770;27;45424;-73
2022/06/27 12:49:13;;;;;;;;;1.00;1.00;;;;;;;;5119290;27;45382;-73
2022/06/27 12:51:38;;;;;;;;;1.00;1.00;;;;;;;;5118945;27;45279;-73
2022/06/27 12:54:04;;;;;;;;;0.00;0.00;;;;;;;;5118779;27;46422;-73
2022/06/27 12:56:29;;;;;;;;;0.33;0.00;;;;;;;;5118889;27;45266;-74
2022/06/27 12:58:54;;;;;;;;;2.33;1.00;;;;;;;;5118533;27;45258;-73
2022/06/27 13:01:20;;;;;;;;;0.00;0.00;;;;;;;;5119167;27;45330;-73
2022/06/27 13:03:46;;;;;;;;;2.00;0.00;;;;;;;;5118473;27;45438;-73
2022/06/27 13:06:12;;;;;;;;;2.00;0.00;;;;;;;;5118760;27;45238;-73
2022/06/27 13:08:37;;;;;;;;;1.33;1.00;;;;;;;;5118518;27;45444;-73
2022/06/27 13:11:02;;;;;;;;;0.00;0.00;;;;;;;;5118891;27;45298;-74
2022/06/27 13:13:28;;;;;;;;;2.00;2.00;;;;;;;;5118552;27;47292;-72
2022/06/27 13:15:53;;;;;;;;;0.00;0.00;;;;;;;;5118446;27;45212;-73
2022/06/27 13:18:19;;;;;;;;;1.00;1.00;;;;;;;;5118864;27;45397;-74
2022/06/27 13:20:44;;;;;;;;;1.00;1.00;;;;;;;;5118774;27;45347;-73
2022/06/27 13:23:09;;;;;;;;;1.00;1.00;;;;;;;;5118433;27;45342;-73
2022/06/27 13:25:34;;;;;;;;;1.00;1.00;;;;;;;;5118307;27;45374;-73
2022/06/27 13:28:00;;;;;;;;;1.00;0.67;;;;;;;;5118398;27;45333;-73
2022/06/27 13:30:26;;;;;;;;;1.33;0.67;;;;;;;;5118786;27;45431;-73
2022/06/27 13:32:51;;;;;;;;;2.67;1.67;;;;;;;;5119958;27;45595;-73
2022/06/27 13:35:16;;;;;;;;;1.00;1.00;;;;;;;;5121975;27;45377;-73
2022/06/27 13:37:41;;;;;;;;;0.00;0.00;;;;;;;;5121955;27;45277;-74
2022/06/27 13:40:07;;;;;;;;;2.67;1.00;;;;;;;;5121957;27;45414;-72
2022/06/27 13:42:33;;;;;;;;;2.00;0.33;;;;;;;;5121815;27;47567;-74
2022/06/27 13:44:59;;;;;;;;;2.00;2.00;;;;;;;;5121804;27;45327;-74
2022/06/27 13:47:25;;;;;;;;;2.00;1.00;;;;;;;;5121941;27;45283;-73
2022/06/27 13:49:50;;;;;;;;;1.00;1.00;;;;;;;;5121878;27;45546;-74
2022/06/27 13:52:16;;;;;;;;;1.00;1.00;;;;;;;;5121496;27;45447;-73
2022/06/27 13:54:42;;;;;;;;;1.00;1.00;;;;;;;;5121849;27;45384;-73
2022/06/27 13:57:07;;;;;;;;;0.00;0.00;;;;;;;;5121719;27;45413;-72
2022/06/27 13:59:32;;;;;;;;;0.00;0.00;;;;;;;;5121793;27;45296;-73
2022/06/27 14:01:58;;;;;;;;;0.00;0.00;;;;;;;;5121351;27;46515;-73
2022/06/27 14:04:23;;;;;;;;;1.00;1.00;;;;;;;;5121469;27;45370;-73
2022/06/27 14:09:32;;;;;;;;;1.00;1.00;;;;;;;;5121457;27;45320;-73
2022/06/27 14:11:57;;;;;;;;;14.67;12.33;;;;;;;;5121030;27;46294;-74
2022/06/27 14:14:23;;;;;;;;;2.00;1.00;;;;;;;;5121195;27;45417;-73
2022/06/27 14:16:48;;;;;;;;;2.00;1.00;;;;;;;;5120971;27;45417;-73
2022/06/27 14:19:13;;;;;;;;;3.33;2.67;;;;;;;;5121515;27;45343;-73
2022/06/27 14:21:39;;;;;;;;;1.33;1.33;;;;;;;;5121161;27;45449;-73
2022/06/27 14:24:05;;;;;;;;;1.00;1.00;;;;;;;;5120849;27;45315;-73
2022/06/27 14:26:30;;;;;;;;;3.33;1.00;;;;;;;;5121215;27;45445;-73
2022/06/27 14:28:55;;;;;;;;;2.00;1.00;;;;;;;;5121154;27;45274;-73
2022/06/27 14:31:20;;;;;;;;;1.00;1.00;;;;;;;;5120947;27;45454;-74
2022/06/27 14:33:47;;;;;;;;;0.33;0.33;;;;;;;;5121091;27;45483;-74
2022/06/27 14:36:13;;;;;;;;;0.67;0.67;;;;;;;;5121002;27;45341;-73
2022/06/27 14:38:38;;;;;;;;;1.00;1.00;;;;;;;;5121224;27;45399;-73
2022/06/27 14:41:04;;;;;;;;;0.33;0.33;;;;;;;;5120614;27;46461;-74
2022/06/27 14:43:29;;;;;;;;;1.00;1.00;;;;;;;;5119273;27;45899;-73
2022/06/27 14:45:55;;;;;;;;;1.00;1.00;;;;;;;;5119998;27;45236;-74